Time;durP1;ratioP1;P1;durP2;ratioP2;P2;SDS_P1;SDS_P2;PMS_P1;PMS_P2;Temp;Humidity;BMP_temperature;BMP_pressure;BME280_temperature;BME280_humidity;BME280_pressure;Samples;Min_cycle;Max_cycle;Signal;HPM_P1;HPM_P2
2023/09/17 00:00:13;;;;;;;10.65;8.30;;;23.00;63.70;;;;;;5059148;28;20714;-27
2023/09/17 00:02:40;;;;;;;9.55;8.15;;;22.90;63.60;;;;;;5054085;28;20647;-27
2023/09/17 00:05:12;;;;;;;10.48;8.10;;;22.90;63.80;;;;;;5061605;28;20348;-27
2023/09/17 00:07:40;;;;;;;12.15;7.85;;;22.90;63.70;;;;;;5060910;28;20220;-27
2023/09/17 00:10:11;;;;;;;8.50;7.63;;;22.90;63.90;;;;;;5063667;28;20202;-28
2023/09/17 00:12:45;;;;;;;9.48;7.90;;;22.90;63.90;;;;;;5056753;28;20211;-28
2023/09/17 00:15:15;;;;;;;8.40;6.75;;;22.90;64.00;;;;;;5064181;28;20663;-27
2023/09/17 00:17:44;;;;;;;9.18;7.82;;;22.80;64.10;;;;;;5067813;28;20196;-27
2023/09/17 00:20:12;;;;;;;8.95;7.57;;;22.80;64.20;;;;;;5062199;28;20242;-27
2023/09/17 00:22:40;;;;;;;11.52;7.75;;;22.80;64.20;;;;;;5060761;28;20212;-27
2023/09/17 00:25:07;;;;;;;11.02;8.18;;;22.80;64.20;;;;;;5056795;28;20242;-27
2023/09/17 00:27:35;;;;;;;9.82;7.80;;;22.80;64.30;;;;;;5061347;28;20200;-27
2023/09/17 00:30:03;;;;;;;12.13;8.55;;;22.80;64.30;;;;;;5058802;28;20665;-27
2023/09/17 00:32:30;;;;;;;11.23;8.48;;;22.80;64.40;;;;;;5051880;28;20219;-27
2023/09/17 00:35:00;;;;;;;11.13;8.02;;;22.70;64.30;;;;;;5057574;28;20219;-27
2023/09/17 00:37:28;;;;;;;8.50;7.70;;;22.70;64.50;;;;;;5069768;28;20204;-29
2023/09/17 00:39:55;;;;;;;11.75;8.43;;;22.70;64.60;;;;;;5051311;28;20212;-30
2023/09/17 00:42:22;;;;;;;8.43;7.63;;;22.70;64.60;;;;;;5068860;28;20219;-29
2023/09/17 00:44:50;;;;;;;9.25;8.18;;;22.70;64.60;;;;;;5058703;28;20306;-30
2023/09/17 00:47:21;;;;;;;10.43;9.23;;;22.70;64.80;;;;;;5078394;28;20742;-30
2023/09/17 00:49:50;;;;;;;10.13;9.05;;;22.70;64.70;;;;;;5068491;28;20581;-29
2023/09/17 00:52:21;;;;;;;10.50;9.40;;;22.70;64.80;;;;;;5064665;28;20207;-29
2023/09/17 00:54:51;;;;;;;11.85;9.77;;;22.70;64.80;;;;;;5062279;28;20213;-27
2023/09/17 00:57:19;;;;;;;11.10;9.48;;;22.70;64.80;;;;;;5066034;28;20231;-27
2023/09/17 00:59:49;;;;;;;11.88;9.27;;;22.70;64.90;;;;;;5049074;28;20647;-27
2023/09/17 01:02:21;;;;;;;13.73;9.70;;;22.70;65.00;;;;;;5057391;28;20227;-27
2023/09/17 01:04:51;;;;;;;11.98;10.75;;;22.70;65.00;;;;;;5053521;28;20224;-27
2023/09/17 01:07:23;;;;;;;16.77;11.00;;;22.70;65.00;;;;;;5051078;28;20188;-27
2023/09/17 01:09:53;;;;;;;13.27;11.10;;;22.60;64.90;;;;;;5058754;28;20203;-30
2023/09/17 01:12:21;;;;;;;11.30;10.05;;;22.60;65.00;;;;;;5058124;28;20228;-30
2023/09/17 01:14:48;;;;;;;12.55;9.65;;;22.60;65.10;;;;;;5058369;28;20211;-30
2023/09/17 01:17:18;;;;;;;12.65;10.00;;;22.60;65.10;;;;;;5053675;28;20202;-30
2023/09/17 01:19:52;;;;;;;15.93;11.57;;;22.60;65.20;;;;;;5066957;28;20212;-30
2023/09/17 01:22:34;;;;;;;13.60;11.43;;;22.60;65.30;;;;;;5061199;28;20207;-30
2023/09/17 01:25:12;;;;;;;13.82;12.30;;;22.60;65.40;;;;;;5057899;28;20200;-30
2023/09/17 01:27:44;;;;;;;19.13;15.07;;;22.60;65.40;;;;;;5057170;28;20212;-30
2023/09/17 01:30:15;;;;;;;16.92;15.13;;;22.60;65.40;;;;;;5059024;28;20594;-30
2023/09/17 01:32:46;;;;;;;18.63;14.18;;;22.60;65.40;;;;;;5055169;28;20215;-30
2023/09/17 01:35:17;;;;;;;17.77;15.50;;;22.60;65.50;;;;;;5065977;28;20210;-30
2023/09/17 01:37:52;;;;;;;18.63;14.73;;;22.60;65.50;;;;;;5079693;28;20732;-30
2023/09/17 01:40:23;;;;;;;18.42;15.50;;;22.50;65.50;;;;;;5045803;28;20212;-30
2023/09/17 01:42:55;;;;;;;18.85;16.55;;;22.60;65.60;;;;;;5051070;28;20204;-30
2023/09/17 01:45:26;;;;;;;20.77;16.30;;;22.50;65.60;;;;;;5048285;28;20725;-30
2023/09/17 01:47:54;;;;;;;19.88;16.73;;;22.50;65.70;;;;;;5066441;28;20208;-30
2023/09/17 01:50:24;;;;;;;18.50;16.27;;;22.50;65.70;;;;;;5067991;28;20235;-29
2023/09/17 01:52:53;;;;;;;21.80;18.30;;;22.50;65.70;;;;;;5057677;28;20670;-30
2023/09/17 01:55:23;;;;;;;21.02;18.73;;;22.60;65.80;;;;;;5046688;28;20227;-30
2023/09/17 01:57:52;;;;;;;21.75;18.83;;;22.50;65.80;;;;;;5058577;28;20196;-30
2023/09/17 02:00:22;;;;;;;22.85;18.98;;;22.50;65.80;;;;;;5076524;28;20203;-29
2023/09/17 02:02:52;;;;;;;25.33;20.23;;;22.50;65.90;;;;;;5061159;28;20255;-30
2023/09/17 02:05:25;;;;;;;22.75;18.65;;;22.50;65.90;;;;;;5065496;28;20227;-30
2023/09/17 02:07:55;;;;;;;23.35;19.10;;;22.50;65.90;;;;;;5062209;28;20215;-29
2023/09/17 02:10:24;;;;;;;24.10;19.88;;;22.50;66.00;;;;;;5063258;28;20254;-30
2023/09/17 02:12:51;;;;;;;24.63;19.30;;;22.50;66.00;;;;;;5046849;28;20220;-28
2023/09/17 02:15:19;;;;;;;22.05;19.00;;;22.50;66.00;;;;;;5074849;28;20207;-27
2023/09/17 02:17:50;;;;;;;23.50;19.60;;;22.50;66.20;;;;;;5061040;28;20603;-27
2023/09/17 02:20:18;;;;;;;22.77;19.13;;;22.50;66.20;;;;;;5066974;28;20243;-27
2023/09/17 02:22:46;;;;;;;21.48;19.17;;;22.50;66.20;;;;;;5047291;28;20204;-27
2023/09/17 02:25:15;;;;;;;22.75;18.38;;;22.50;66.20;;;;;;5053166;28;20230;-27
2023/09/17 02:27:50;;;;;;;23.00;20.45;;;22.50;66.20;;;;;;5057278;28;20208;-27
2023/09/17 02:30:17;;;;;;;25.05;21.08;;;22.50;66.40;;;;;;5055308;28;20207;-27
2023/09/17 02:32:44;;;;;;;23.05;19.30;;;22.50;66.40;;;;;;5065768;28;20211;-27
2023/09/17 02:35:11;;;;;;;27.90;21.23;;;22.50;66.30;;;;;;5057284;28;20196;-27
2023/09/17 02:37:39;;;;;;;24.63;19.60;;;22.50;66.40;;;;;;5055293;28;20215;-27
2023/09/17 02:40:08;;;;;;;23.95;20.67;;;22.50;66.40;;;;;;5063088;28;20201;-27
2023/09/17 02:42:39;;;;;;;25.42;21.27;;;22.50;66.50;;;;;;5056784;28;20290;-27
2023/09/17 02:45:08;;;;;;;24.08;21.42;;;22.50;67.30;;;;;;5064619;28;20225;-27
2023/09/17 02:47:40;;;;;;;28.45;21.52;;;22.50;66.50;;;;;;5049150;28;20309;-28
2023/09/17 02:50:09;;;;;;;25.80;22.27;;;22.50;66.60;;;;;;5079873;28;20202;-27
2023/09/17 02:52:39;;;;;;;27.35;22.98;;;22.50;66.60;;;;;;5047754;28;20209;-27
2023/09/17 02:55:08;;;;;;;26.45;22.70;;;22.50;66.70;;;;;;5045331;28;20374;-27
2023/09/17 02:57:36;;;;;;;26.15;21.17;;;22.40;66.60;;;;;;5055839;28;20211;-27
2023/09/17 03:00:10;;;;;;;29.13;22.77;;;22.40;66.70;;;;;;5044020;28;20589;-26
2023/09/17 03:02:40;;;;;;;29.40;23.25;;;22.40;66.70;;;;;;5054909;28;20978;-27
2023/09/17 03:05:10;;;;;;;30.73;22.90;;;22.40;66.80;;;;;;5062988;28;20762;-27
2023/09/17 03:07:38;;;;;;;28.27;22.55;;;22.40;66.80;;;;;;5056991;28;21060;-27
2023/09/17 03:10:11;;;;;;;26.42;23.30;;;22.40;66.90;;;;;;5063814;28;20281;-27
2023/09/17 03:12:38;;;;;;;27.35;21.58;;;22.40;66.90;;;;;;5060388;28;20280;-27
2023/09/17 03:15:06;;;;;;;25.08;21.50;;;22.40;66.90;;;;;;5079129;28;20206;-27
2023/09/17 03:17:37;;;;;;;32.47;24.05;;;22.40;66.90;;;;;;5055318;28;20199;-26
2023/09/17 03:20:13;;;;;;;24.85;22.15;;;22.40;66.90;;;;;;5061375;28;20627;-27
2023/09/17 03:22:41;;;;;;;26.88;22.42;;;22.40;66.90;;;;;;5062454;28;20223;-27
2023/09/17 03:25:12;;;;;;;23.15;20.65;;;22.40;66.90;;;;;;5065263;28;20200;-27
2023/09/17 03:27:43;;;;;;;31.42;24.73;;;22.40;67.00;;;;;;5055839;28;20238;-27
2023/09/17 03:30:14;;;;;;;24.63;21.58;;;22.40;67.10;;;;;;5048035;28;20196;-27
2023/09/17 03:32:41;;;;;;;31.88;23.92;;;22.40;67.10;;;;;;5048526;28;20200;-27
2023/09/17 03:35:28;;;;;;;27.90;23.77;;;22.30;67.10;;;;;;5065641;28;20207;-26
2023/09/17 03:38:02;;;;;;;28.30;23.33;;;22.30;67.10;;;;;;5074594;28;20266;-27
2023/09/17 03:40:29;;;;;;;25.38;22.52;;;22.40;67.20;;;;;;5046299;28;20199;-27
2023/09/17 03:42:56;;;;;;;32.75;24.70;;;22.30;67.10;;;;;;5068326;28;20202;-27
2023/09/17 03:45:24;;;;;;;32.75;25.20;;;22.30;67.20;;;;;;5068394;28;20245;-27
2023/09/17 03:47:51;;;;;;;31.95;25.25;;;22.30;67.20;;;;;;5062559;28;20358;-27
2023/09/17 03:50:18;;;;;;;29.20;25.13;;;22.30;67.20;;;;;;5048610;28;20584;-27
2023/09/17 03:52:55;;;;;;;33.45;24.15;;;22.30;67.20;;;;;;5048248;28;20731;-27
2023/09/17 03:55:25;;;;;;;29.55;24.00;;;22.30;67.30;;;;;;5048770;28;20295;-26
2023/09/17 03:57:55;;;;;;;25.75;22.88;;;22.30;68.10;;;;;;5049059;28;20208;-26
2023/09/17 04:00:28;;;;;;;27.45;23.95;;;22.30;67.40;;;;;;5081026;28;20211;-27
2023/09/17 04:03:00;;;;;;;33.60;25.63;;;22.30;67.40;;;;;;5078590;28;20232;-27
2023/09/17 04:05:29;;;;;;;30.50;26.02;;;22.30;67.40;;;;;;5053599;28;20693;-27
2023/09/17 04:07:57;;;;;;;31.17;25.95;;;22.30;67.50;;;;;;5067107;28;20219;-26
2023/09/17 04:10:28;;;;;;;30.83;25.48;;;22.30;67.50;;;;;;5062815;28;20691;-26
2023/09/17 04:12:59;;;;;;;32.97;25.02;;;22.30;67.50;;;;;;5063697;28;20673;-27
2023/09/17 04:15:38;;;;;;;29.10;23.98;;;22.30;67.50;;;;;;5054682;28;20265;-27
2023/09/17 04:18:05;;;;;;;34.50;26.50;;;22.30;67.50;;;;;;5048043;28;20195;-27
2023/09/17 04:20:32;;;;;;;34.95;26.42;;;22.30;67.50;;;;;;5062422;28;20283;-27
2023/09/17 04:23:03;;;;;;;34.72;27.05;;;22.30;67.60;;;;;;5062393;28;20222;-27
2023/09/17 04:25:34;;;;;;;33.33;26.02;;;22.30;67.70;;;;;;5062925;28;20220;-27
2023/09/17 04:28:04;;;;;;;30.27;26.77;;;22.20;67.60;;;;;;5048930;28;20592;-27
2023/09/17 04:30:32;;;;;;;29.75;25.45;;;22.30;67.70;;;;;;5062838;28;20226;-26
2023/09/17 04:33:02;;;;;;;31.38;26.42;;;22.20;67.70;;;;;;5055737;28;20263;-27
2023/09/17 04:35:29;;;;;;;36.10;25.73;;;22.20;67.70;;;;;;5051740;28;20302;-27
2023/09/17 04:37:56;;;;;;;29.83;26.08;;;22.20;67.80;;;;;;5055327;28;20208;-27
2023/09/17 04:40:25;;;;;;;35.13;26.52;;;22.20;67.80;;;;;;5089848;28;20211;-27
2023/09/17 04:42:56;;;;;;;33.90;25.85;;;22.20;67.80;;;;;;5059300;28;20673;-27
2023/09/17 04:45:33;;;;;;;32.33;26.48;;;22.20;67.80;;;;;;5070382;28;20208;-27
2023/09/17 04:48:01;;;;;;;32.92;25.65;;;22.20;68.00;;;;;;5065327;28;20227;-27
2023/09/17 04:50:31;;;;;;;36.83;27.65;;;22.20;68.00;;;;;;5063933;28;20345;-27
2023/09/17 04:53:00;;;;;;;39.92;26.50;;;22.20;67.90;;;;;;5057155;28;20602;-27
2023/09/17 04:55:30;;;;;;;32.95;26.13;;;22.20;68.00;;;;;;5055288;28;20219;-27
2023/09/17 04:58:03;;;;;;;34.38;26.52;;;22.20;68.00;;;;;;5059006;28;20311;-27
2023/09/17 05:00:30;;;;;;;30.25;25.33;;;22.20;68.00;;;;;;5058152;28;20634;-27
2023/09/17 05:02:57;;;;;;;30.80;25.08;;;22.20;68.10;;;;;;5063293;28;20246;-27
2023/09/17 05:05:25;;;;;;;25.08;22.35;;;22.20;68.10;;;;;;5069793;28;20684;-27
2023/09/17 05:07:53;;;;;;;29.75;25.10;;;22.20;68.10;;;;;;5075830;28;20231;-27
2023/09/17 05:10:22;;;;;;;29.42;24.60;;;22.20;68.10;;;;;;5065123;28;20612;-27
2023/09/17 05:12:50;;;;;;;32.22;25.45;;;22.20;68.20;;;;;;5063773;28;20196;-27
2023/09/17 05:15:17;;;;;;;30.70;25.50;;;22.20;68.20;;;;;;5075159;28;20203;-26
2023/09/17 05:17:46;;;;;;;28.23;23.58;;;22.20;68.20;;;;;;5057505;28;20222;-26
2023/09/17 05:20:18;;;;;;;30.45;24.77;;;22.20;68.30;;;;;;5059800;28;20204;-26
2023/09/17 05:22:45;;;;;;;29.35;23.83;;;22.20;68.30;;;;;;5076289;28;20670;-26
2023/09/17 05:25:15;;;;;;;26.88;22.30;;;22.20;68.30;;;;;;5060389;28;20242;-26
2023/09/17 05:27:43;;;;;;;26.77;22.05;;;22.20;68.40;;;;;;5058911;28;20216;-27
2023/09/17 05:30:10;;;;;;;21.73;19.40;;;22.20;68.40;;;;;;5065928;28;20208;-26
2023/09/17 05:32:38;;;;;;;21.55;18.80;;;22.20;68.40;;;;;;5077834;28;20242;-26
2023/09/17 05:35:08;;;;;;;23.20;18.83;;;22.20;68.40;;;;;;5060687;28;20223;-27
2023/09/17 05:37:38;;;;;;;19.58;15.70;;;22.20;68.40;;;;;;5050172;28;20293;-26
2023/09/17 05:40:08;;;;;;;19.77;17.67;;;22.20;68.40;;;;;;5059877;28;20227;-27
2023/09/17 05:42:35;;;;;;;24.02;18.67;;;22.20;68.50;;;;;;5050302;28;20209;-26
2023/09/17 05:45:05;;;;;;;20.75;17.95;;;22.20;68.50;;;;;;5059048;28;20212;-26
2023/09/17 05:47:35;;;;;;;19.38;17.13;;;22.20;68.50;;;;;;5040264;28;20708;-26
2023/09/17 05:50:03;;;;;;;20.63;17.00;;;22.20;68.50;;;;;;5072727;28;20203;-26
2023/09/17 05:52:33;;;;;;;19.23;16.27;;;22.20;68.60;;;;;;5057036;28;20311;-27
2023/09/17 05:55:03;;;;;;;19.90;16.83;;;22.20;68.60;;;;;;5046693;28;20204;-26
2023/09/17 05:57:31;;;;;;;20.45;17.80;;;22.20;68.60;;;;;;5044418;28;20677;-30
2023/09/17 05:59:59;;;;;;;20.60;15.60;;;22.20;68.60;;;;;;5052858;28;20219;-30
2023/09/17 06:02:29;;;;;;;19.73;16.13;;;22.20;68.60;;;;;;5063970;28;20648;-30
2023/09/17 06:04:59;;;;;;;17.17;15.20;;;22.20;68.70;;;;;;5071804;28;20228;-30
2023/09/17 06:07:29;;;;;;;22.27;16.15;;;22.20;68.70;;;;;;5045637;28;20698;-30
2023/09/17 06:09:59;;;;;;;25.52;16.50;;;22.20;68.70;;;;;;5045601;28;20208;-32
2023/09/17 06:12:26;;;;;;;17.80;15.15;;;22.20;68.70;;;;;;5045652;28;20231;-30
2023/09/17 06:14:53;;;;;;;17.17;14.77;;;22.20;68.80;;;;;;5070023;28;20223;-30
2023/09/17 06:17:20;;;;;;;17.60;15.57;;;22.20;68.80;;;;;;5074403;28;20233;-30
2023/09/17 06:19:47;;;;;;;15.18;13.52;;;22.20;68.80;;;;;;5079404;28;20304;-30
2023/09/17 06:22:17;;;;;;;19.92;15.05;;;22.20;68.80;;;;;;5066151;28;20204;-30
2023/09/17 06:24:47;;;;;;;17.15;14.23;;;22.20;68.90;;;;;;5055836;28;20459;-30
2023/09/17 06:27:14;;;;;;;17.73;14.20;;;22.30;69.00;;;;;;5073951;28;20468;-30
2023/09/17 06:29:43;;;;;;;17.25;15.45;;;22.30;69.00;;;;;;5065552;28;20648;-30
2023/09/17 06:32:11;;;;;;;18.13;14.18;;;22.30;69.10;;;;;;5059155;28;20296;-30
2023/09/17 06:34:41;;;;;;;17.75;14.73;;;22.30;69.00;;;;;;5067381;28;20238;-30
2023/09/17 06:37:11;;;;;;;16.23;14.00;;;22.30;69.10;;;;;;5082892;28;20662;-26
2023/09/17 06:39:41;;;;;;;17.23;14.57;;;22.30;69.00;;;;;;5061310;28;20670;-26
2023/09/17 06:42:09;;;;;;;23.23;15.63;;;22.30;69.10;;;;;;5044577;28;20246;-26
2023/09/17 06:44:42;;;;;;;19.45;16.60;;;22.40;69.20;;;;;;5048294;28;20204;-27
2023/09/17 06:47:16;;;;;;;22.77;17.77;;;22.30;69.00;;;;;;5055928;28;20208;-26
2023/09/17 06:49:43;;;;;;;22.90;16.92;;;22.40;69.20;;;;;;5043968;28;20236;-28
2023/09/17 06:52:11;;;;;;;24.10;19.23;;;22.40;69.00;;;;;;5057336;28;20232;-26
2023/09/17 06:54:38;;;;;;;23.63;17.42;;;22.40;69.10;;;;;;5045725;28;20270;-26
2023/09/17 06:57:08;;;;;;;20.23;18.08;;;22.40;69.10;;;;;;5052371;28;20216;-26
2023/09/17 06:59:36;;;;;;;18.48;16.20;;;22.40;69.10;;;;;;5045229;28;20236;-26
2023/09/17 07:02:07;;;;;;;19.15;15.80;;;22.40;69.10;;;;;;5050307;28;20282;-26
2023/09/17 07:04:34;;;;;;;19.27;16.52;;;22.40;69.10;;;;;;5051429;28;20294;-27
2023/09/17 07:07:09;;;;;;;18.45;15.88;;;22.40;69.10;;;;;;5045980;28;20237;-26
2023/09/17 07:09:38;;;;;;;18.27;16.10;;;22.40;69.10;;;;;;5046570;28;20199;-26
2023/09/17 07:12:06;;;;;;;18.23;16.33;;;22.40;69.10;;;;;;5055764;28;20504;-27
2023/09/17 07:14:33;;;;;;;21.50;17.15;;;22.40;69.20;;;;;;5038948;28;20191;-26
2023/09/17 07:17:03;;;;;;;19.75;16.20;;;22.40;69.10;;;;;;5081395;28;20206;-26
2023/09/17 07:19:33;;;;;;;16.58;14.85;;;22.40;69.00;;;;;;5060261;28;20200;-26
2023/09/17 07:22:03;;;;;;;19.13;15.95;;;22.40;69.00;;;;;;5065270;28;20756;-27
2023/09/17 07:24:32;;;;;;;17.80;15.45;;;22.40;69.10;;;;;;5056678;28;20220;-26
2023/09/17 07:26:59;;;;;;;16.90;14.90;;;22.40;69.10;;;;;;5059402;28;20251;-27
2023/09/17 07:29:28;;;;;;;16.63;14.18;;;22.40;69.10;;;;;;5070289;28;20239;-27
2023/09/17 07:32:03;;;;;;;18.13;13.98;;;22.40;69.20;;;;;;5064086;28;20207;-26
2023/09/17 07:34:35;;;;;;;16.58;14.35;;;22.40;69.30;;;;;;5066344;28;20253;-26
2023/09/17 07:37:05;;;;;;;18.30;16.23;;;22.40;69.20;;;;;;5069152;28;20754;-26
2023/09/17 07:39:34;;;;;;;22.60;16.45;;;22.40;69.30;;;;;;5066296;28;20205;-27
2023/09/17 07:42:02;;;;;;;20.63;18.00;;;22.40;69.30;;;;;;5054115;28;20227;-26
2023/09/17 07:44:29;;;;;;;24.73;20.05;;;22.50;69.20;;;;;;5059477;28;20207;-26
2023/09/17 07:46:56;;;;;;;25.15;19.42;;;22.50;70.10;;;;;;5064798;28;20220;-27
2023/09/17 07:49:28;;;;;;;26.05;20.48;;;22.50;69.20;;;;;;5057281;28;20413;-27
2023/09/17 07:51:58;;;;;;;25.02;19.60;;;22.50;69.20;;;;;;5051797;28;20269;-27
2023/09/17 07:54:28;;;;;;;24.20;18.60;;;22.50;69.30;;;;;;5058603;28;20253;-27
2023/09/17 07:56:55;;;;;;;25.08;19.13;;;22.50;69.30;;;;;;5066262;28;20269;-26
2023/09/17 07:59:22;;;;;;;22.55;18.75;;;22.50;69.30;;;;;;5045931;28;20287;-26
2023/09/17 08:01:52;;;;;;;25.20;19.33;;;22.50;69.30;;;;;;5059159;28;20239;-26
2023/09/17 08:04:19;;;;;;;23.90;18.90;;;22.50;69.40;;;;;;5030704;28;20555;-26
2023/09/17 08:06:49;;;;;;;26.17;19.92;;;22.50;69.50;;;;;;5041736;28;21036;-26
2023/09/17 08:09:21;;;;;;;23.80;19.10;;;22.50;69.40;;;;;;5053248;28;20239;-26
2023/09/17 08:11:51;;;;;;;22.98;19.50;;;22.50;69.50;;;;;;5057515;28;20207;-29
2023/09/17 08:14:22;;;;;;;21.48;19.15;;;22.50;69.50;;;;;;5073079;28;20196;-30
2023/09/17 08:16:50;;;;;;;24.85;19.80;;;22.50;69.50;;;;;;5061059;28;20638;-30
2023/09/17 08:19:17;;;;;;;22.63;18.27;;;22.60;69.60;;;;;;5063926;28;20207;-30
2023/09/17 08:21:46;;;;;;;22.25;17.95;;;22.60;69.60;;;;;;5050064;28;20211;-30
2023/09/17 08:24:20;;;;;;;23.33;16.75;;;22.60;69.50;;;;;;5058824;28;20203;-30
2023/09/17 08:26:52;;;;;;;19.70;14.98;;;22.60;69.60;;;;;;5060137;28;20246;-30
2023/09/17 08:29:20;;;;;;;18.85;14.90;;;22.60;69.60;;;;;;5066773;28;20321;-30
2023/09/17 08:31:50;;;;;;;17.00;13.93;;;22.60;69.60;;;;;;5049169;28;20199;-30
2023/09/17 08:34:22;;;;;;;16.55;13.80;;;22.70;69.70;;;;;;5050363;28;20625;-30
2023/09/17 08:36:49;;;;;;;14.45;12.65;;;22.60;69.60;;;;;;5048749;28;20205;-30
2023/09/17 08:39:19;;;;;;;17.63;13.00;;;22.70;69.70;;;;;;5047558;28;20270;-30
2023/09/17 08:41:47;;;;;;;14.88;11.88;;;22.70;69.80;;;;;;5049935;28;20258;-30
2023/09/17 08:44:23;;;;;;;15.30;11.70;;;22.70;69.70;;;;;;5056959;28;20223;-29
2023/09/17 08:46:55;;;;;;;13.50;11.63;;;22.70;69.70;;;;;;5056612;28;20223;-30
2023/09/17 08:49:23;;;;;;;12.75;10.25;;;22.80;69.70;;;;;;5056362;28;20544;-30
2023/09/17 08:51:56;;;;;;;12.07;10.57;;;22.80;69.70;;;;;;5048752;28;20212;-30
2023/09/17 08:54:36;;;;;;;12.00;10.00;;;22.80;69.70;;;;;;5064757;28;20710;-30
2023/09/17 08:57:06;;;;;;;10.40;9.30;;;22.80;69.80;;;;;;5047427;28;20192;-30
2023/09/17 08:59:47;;;;;;;10.27;9.23;;;22.90;69.80;;;;;;5066701;28;20250;-30
2023/09/17 09:02:29;;;;;;;11.82;10.02;;;22.80;69.80;;;;;;5065131;28;20327;-30
2023/09/17 09:05:03;;;;;;;11.38;9.02;;;22.90;70.00;;;;;;5062045;28;20196;-30
2023/09/17 09:07:34;;;;;;;10.27;9.02;;;22.90;69.90;;;;;;5078561;28;20227;-30
2023/09/17 09:10:03;;;;;;;11.38;9.57;;;23.00;69.90;;;;;;5068665;28;20280;-30
2023/09/17 09:12:30;;;;;;;11.82;9.10;;;23.00;69.90;;;;;;5053742;28;20286;-30
2023/09/17 09:14:59;;;;;;;9.95;8.02;;;23.00;69.90;;;;;;5064096;28;20214;-30
2023/09/17 09:17:29;;;;;;;12.80;9.65;;;23.00;69.90;;;;;;5055480;28;20214;-30
2023/09/17 09:19:57;;;;;;;12.15;9.23;;;23.10;69.90;;;;;;5061084;28;20197;-30
2023/09/17 09:22:27;;;;;;;12.07;9.02;;;23.10;69.90;;;;;;5057625;28;20208;-30
2023/09/17 09:25:00;;;;;;;9.80;8.80;;;23.20;69.90;;;;;;5063310;28;20785;-30
2023/09/17 09:27:27;;;;;;;12.38;8.80;;;23.20;70.00;;;;;;5060779;28;20229;-30
2023/09/17 09:29:55;;;;;;;9.02;8.13;;;23.20;69.80;;;;;;5043504;28;20212;-30
2023/09/17 09:32:23;;;;;;;11.45;8.57;;;23.30;69.90;;;;;;5049298;28;20208;-30
2023/09/17 09:34:55;;;;;;;8.27;7.45;;;23.30;69.80;;;;;;5062637;28;20205;-30
2023/09/17 09:37:25;;;;;;;10.43;8.50;;;23.30;69.80;;;;;;5045536;28;20240;-30
2023/09/17 09:39:55;;;;;;;10.63;8.90;;;23.30;69.80;;;;;;5061582;28;20261;-30
2023/09/17 09:42:26;;;;;;;11.45;8.82;;;23.30;69.70;;;;;;5069500;28;20595;-30
2023/09/17 09:44:57;;;;;;;12.13;8.77;;;23.30;69.70;;;;;;5046186;28;20796;-30
2023/09/17 09:47:26;;;;;;;10.65;8.43;;;23.40;69.80;;;;;;5063429;28;20322;-30
2023/09/17 09:49:54;;;;;;;10.55;8.27;;;23.40;69.70;;;;;;5081684;28;20195;-30
2023/09/17 09:52:28;;;;;;;11.50;7.93;;;23.40;69.80;;;;;;5058417;28;20214;-30
2023/09/17 09:55:00;;;;;;;8.27;7.47;;;23.40;69.80;;;;;;5060923;28;20214;-30
2023/09/17 09:57:30;;;;;;;12.55;8.80;;;23.40;69.80;;;;;;5063866;28;20231;-30
2023/09/17 09:59:59;;;;;;;10.18;8.25;;;23.40;69.80;;;;;;5065040;28;20199;-30
2023/09/17 10:02:31;;;;;;;9.30;8.25;;;23.50;69.80;;;;;;5065842;28;20262;-30
2023/09/17 10:05:01;;;;;;;14.82;8.68;;;23.50;69.80;;;;;;5065583;28;20219;-30
2023/09/17 10:07:34;;;;;;;12.55;9.25;;;23.50;69.70;;;;;;5047810;28;20650;-29
2023/09/17 10:10:06;;;;;;;10.40;8.07;;;23.60;69.80;;;;;;5065993;28;20203;-30
2023/09/17 10:12:34;;;;;;;8.63;7.53;;;23.60;69.80;;;;;;5065950;28;20233;-29
2023/09/17 10:15:02;;;;;;;7.80;7.00;;;23.60;69.80;;;;;;5066147;28;20300;-30
2023/09/17 10:17:35;;;;;;;8.73;7.28;;;23.60;69.70;;;;;;5066763;28;20677;-29
2023/09/17 10:20:06;;;;;;;9.10;7.70;;;23.60;69.70;;;;;;5066032;28;20203;-29
2023/09/17 10:22:35;;;;;;;8.13;6.95;;;23.70;69.80;;;;;;5064438;28;20234;-29
2023/09/17 10:25:08;;;;;;;11.95;6.90;;;23.70;69.80;;;;;;5047927;28;20700;-29
2023/09/17 10:27:43;;;;;;;9.73;6.38;;;23.70;69.70;;;;;;5065824;28;20235;-29
2023/09/17 10:30:14;;;;;;;7.35;6.65;;;23.80;69.80;;;;;;5064630;28;20201;-30
2023/09/17 10:32:42;;;;;;;6.90;6.20;;;23.80;69.80;;;;;;5065929;28;20684;-29
2023/09/17 10:35:10;;;;;;;7.70;6.93;;;23.80;69.70;;;;;;5065931;28;20227;-29
2023/09/17 10:37:43;;;;;;;8.30;6.60;;;23.80;69.80;;;;;;5048254;28;20268;-30
2023/09/17 10:40:15;;;;;;;6.53;5.88;;;23.90;69.80;;;;;;5064439;28;20263;-30
2023/09/17 10:42:44;;;;;;;6.68;6.00;;;23.90;69.80;;;;;;5066152;28;20206;-29
2023/09/17 10:45:14;;;;;;;8.30;5.45;;;23.90;69.60;;;;;;5065727;28;20273;-29
2023/09/17 10:47:47;;;;;;;7.78;5.57;;;24.00;69.70;;;;;;5064417;28;20310;-30
2023/09/17 10:50:15;;;;;;;5.60;5.03;;;24.00;69.70;;;;;;5064365;28;20325;-29
2023/09/17 10:52:47;;;;;;;6.93;5.47;;;24.00;69.70;;;;;;5066658;28;20605;-30
2023/09/17 10:55:18;;;;;;;8.18;5.82;;;24.10;69.70;;;;;;5064340;28;20203;-30
2023/09/17 10:57:55;;;;;;;8.05;6.82;;;24.10;69.60;;;;;;5047701;28;20215;-30
2023/09/17 11:00:25;;;;;;;6.88;6.22;;;24.10;69.60;;;;;;5066135;28;20203;-32
2023/09/17 11:02:59;;;;;;;6.88;6.13;;;24.10;69.40;;;;;;5065513;28;20616;-32
2023/09/17 11:05:28;;;;;;;7.47;5.97;;;24.10;69.40;;;;;;5064084;28;20200;-29
2023/09/17 11:08:01;;;;;;;5.75;5.25;;;24.20;69.50;;;;;;5065320;28;20231;-31
2023/09/17 11:10:29;;;;;;;8.57;5.25;;;24.20;69.40;;;;;;5065478;28;20666;-30
2023/09/17 11:12:59;;;;;;;5.95;5.30;;;24.20;69.50;;;;;;5063967;28;20199;-32
2023/09/17 11:15:27;;;;;;;6.68;5.75;;;24.20;69.40;;;;;;5063932;28;20207;-30
2023/09/17 11:18:01;;;;;;;7.00;6.28;;;24.20;69.40;;;;;;5065413;28;20680;-30
2023/09/17 11:20:33;;;;;;;6.10;5.50;;;24.20;69.50;;;;;;5063860;28;20421;-30
2023/09/17 11:23:05;;;;;;;7.85;6.20;;;24.30;69.50;;;;;;5063996;28;20290;-30
2023/09/17 11:25:37;;;;;;;8.73;5.63;;;24.30;69.50;;;;;;5064043;28;20306;-30
2023/09/17 11:28:18;;;;;;;6.43;5.65;;;24.30;69.40;;;;;;5047910;28;20215;-30
2023/09/17 11:31:03;;;;;;;5.80;5.30;;;24.30;69.30;;;;;;5080406;28;20200;-30
2023/09/17 11:33:35;;;;;;;6.80;4.93;;;24.40;69.40;;;;;;5065502;28;20298;-30
2023/09/17 11:36:03;;;;;;;6.53;5.78;;;24.40;69.30;;;;;;5047774;28;20204;-30
2023/09/17 11:38:31;;;;;;;7.07;5.28;;;24.40;69.40;;;;;;5065200;28;20196;-30
2023/09/17 11:41:03;;;;;;;9.70;6.70;;;24.40;69.30;;;;;;5047222;28;20219;-30
2023/09/17 11:43:38;;;;;;;8.52;6.63;;;24.40;69.30;;;;;;5065259;28;20700;-27
2023/09/17 11:46:10;;;;;;;8.15;6.40;;;24.40;69.20;;;;;;5064018;28;21019;-26
2023/09/17 11:48:38;;;;;;;7.38;6.18;;;24.40;69.10;;;;;;5063664;28;20223;-26
2023/09/17 11:51:29;;;;;;;9.20;6.70;;;24.50;69.10;;;;;;5065147;28;20223;-26
2023/09/17 11:54:02;;;;;;;9.30;7.30;;;24.50;69.10;;;;;;5065319;28;20200;-28
2023/09/17 11:56:32;;;;;;;9.48;6.78;;;24.40;69.00;;;;;;5063956;28;20208;-27
2023/09/17 11:59:00;;;;;;;8.73;6.90;;;24.50;69.10;;;;;;5063458;28;20212;-26
2023/09/17 12:01:35;;;;;;;6.38;5.78;;;24.50;69.00;;;;;;5056226;28;20689;-26
2023/09/17 12:04:10;;;;;;;7.90;6.32;;;24.50;69.00;;;;;;5063911;28;20265;-26
2023/09/17 12:06:42;;;;;;;10.20;6.63;;;24.50;69.00;;;;;;5048872;28;20255;-26
2023/09/17 12:09:28;;;;;;;7.60;6.25;;;24.50;69.10;;;;;;5048632;28;20220;-26
2023/09/17 12:11:58;;;;;;;11.00;6.10;;;24.50;69.10;;;;;;5046953;28;20322;-26
2023/09/17 12:14:26;;;;;;;8.48;6.05;;;24.50;69.10;;;;;;5062951;28;20293;-26
2023/09/17 12:16:58;;;;;;;17.40;6.88;;;24.50;69.20;;;;;;5063150;28;20303;-26
2023/09/17 12:19:26;;;;;;;6.97;6.28;;;24.60;69.20;;;;;;5057799;28;20215;-27
2023/09/17 12:21:58;;;;;;;13.95;6.15;;;24.70;69.30;;;;;;5068402;28;20509;-27
2023/09/17 12:30:08;;;;;;;9.02;6.20;;;24.80;69.40;;;;;;5067945;28;20766;-27
2023/09/17 12:32:38;;;;;;;7.82;6.30;;;24.90;69.80;;;;;;5067956;28;20252;-27
2023/09/17 12:35:06;;;;;;;6.45;5.88;;;25.00;70.30;;;;;;5066967;28;20218;-27
2023/09/17 12:37:38;;;;;;;10.30;6.15;;;25.00;69.40;;;;;;5067950;28;20811;-26
2023/09/17 12:40:07;;;;;;;6.60;6.00;;;25.10;69.50;;;;;;5068223;28;20203;-26
2023/09/17 12:42:35;;;;;;;7.18;5.90;;;25.10;69.40;;;;;;5068661;28;20202;-27
2023/09/17 12:45:03;;;;;;;6.47;5.57;;;25.20;69.50;;;;;;5066683;28;20310;-27
2023/09/17 12:47:33;;;;;;;9.23;5.78;;;25.20;69.50;;;;;;5066197;28;20311;-26
2023/09/17 12:50:02;;;;;;;9.00;6.05;;;25.30;69.60;;;;;;5067379;28;20322;-27
2023/09/17 12:52:32;;;;;;;6.45;5.40;;;25.40;69.60;;;;;;5082541;28;20261;-27